createdAt,value
2023-05-05T00:01:06.116Z,5.60
2023-05-05T00:03:33.594Z,5.68
2023-05-05T00:06:00.043Z,5.43
2023-05-05T00:08:26.501Z,5.43
2023-05-05T00:10:53.423Z,5.68
2023-05-05T00:13:20.836Z,5.60
2023-05-05T00:15:49.458Z,5.88
2023-05-05T00:18:17.937Z,5.03
2023-05-05T00:20:46.639Z,5.68
2023-05-05T00:23:13.980Z,6.75
2023-05-05T00:25:40.678Z,5.97
2023-05-05T00:28:07.152Z,5.82
2023-05-05T00:30:34.202Z,6.13
2023-05-05T00:33:01.439Z,6.32
2023-05-05T00:35:27.827Z,6.05
2023-05-05T00:37:54.930Z,5.90
2023-05-05T00:40:21.392Z,6.50
2023-05-05T00:42:50.739Z,6.15
2023-05-05T00:45:18.415Z,5.70
2023-05-05T00:47:53.842Z,5.70
2023-05-05T00:50:31.197Z,6.28
2023-05-05T00:53:02.433Z,6.30
2023-05-05T00:55:33.892Z,5.82
2023-05-05T00:58:01.757Z,5.63
2023-05-05T01:00:28.632Z,6.07
2023-05-05T01:02:55.407Z,6.35
2023-05-05T01:05:23.549Z,6.40
2023-05-05T01:08:02.792Z,6.38
2023-05-05T01:10:35.660Z,5.88
2023-05-05T01:13:05.093Z,5.82
2023-05-05T01:15:39.790Z,6.00
2023-05-05T01:18:46.735Z,5.68
2023-05-05T01:21:19.362Z,6.10
2023-05-05T01:23:45.626Z,6.15
2023-05-05T01:26:37.368Z,6.00
2023-05-05T01:29:09.440Z,5.93
2023-05-05T01:31:54.952Z,5.70
2023-05-05T01:34:29.311Z,6.68
2023-05-05T01:37:02.427Z,5.95
2023-05-05T01:39:33.293Z,5.88
2023-05-05T01:42:04.710Z,6.07
2023-05-05T01:44:34.772Z,5.85
2023-05-05T01:47:02.722Z,6.25
2023-05-05T01:49:31.053Z,6.22
2023-05-05T01:51:58.783Z,5.63
2023-05-05T01:54:27.073Z,6.28
2023-05-05T01:56:57.267Z,6.13
2023-05-05T01:59:25.409Z,5.72
2023-05-05T02:01:52.126Z,6.50
2023-05-05T02:04:22.816Z,6.57
2023-05-05T02:06:52.928Z,7.07
2023-05-05T02:09:20.931Z,6.90
2023-05-05T02:11:47.498Z,6.68
2023-05-05T02:14:16.682Z,7.03
2023-05-05T02:16:44.016Z,6.40
2023-05-05T02:19:12.288Z,6.65
2023-05-05T02:21:38.754Z,6.95
2023-05-05T02:24:05.562Z,6.63
2023-05-05T02:26:36.861Z,6.57
2023-05-05T02:29:07.727Z,7.18
2023-05-05T02:31:46.428Z,7.10
2023-05-05T02:34:16.458Z,7.50
2023-05-05T02:36:45.217Z,7.13
2023-05-05T02:39:21.705Z,7.53
2023-05-05T02:41:51.004Z,7.20
2023-05-05T02:44:19.754Z,7.28
2023-05-05T02:46:46.939Z,7.78
2023-05-05T02:49:15.109Z,7.53
2023-05-05T02:51:41.556Z,7.60
2023-05-05T02:54:08.125Z,6.88
2023-05-05T02:56:41.205Z,7.03
2023-05-05T02:59:19.519Z,6.45
2023-05-05T03:02:10.315Z,6.88
2023-05-05T03:04:42.843Z,6.85
2023-05-05T03:07:14.291Z,7.68
2023-05-05T03:09:47.002Z,7.85
2023-05-05T03:12:22.148Z,7.80
2023-05-05T03:14:54.012Z,7.38
2023-05-05T03:17:22.654Z,7.75
2023-05-05T03:19:50.154Z,7.32
2023-05-05T03:22:16.834Z,6.93
2023-05-05T03:24:43.210Z,7.63
2023-05-05T03:27:09.535Z,8.02
2023-05-05T03:29:36.229Z,6.43
2023-05-05T03:32:02.691Z,7.13
2023-05-05T03:34:29.125Z,6.80
2023-05-05T03:36:55.434Z,7.90
2023-05-05T03:39:21.934Z,7.97
2023-05-05T03:41:48.409Z,7.93
2023-05-05T03:44:14.752Z,6.80
2023-05-05T03:46:41.170Z,8.02
2023-05-05T03:49:09.686Z,7.45
2023-05-05T03:51:36.742Z,7.38
2023-05-05T03:54:03.462Z,7.72
2023-05-05T03:56:29.779Z,7.97
2023-05-05T03:58:56.178Z,7.25
2023-05-05T04:01:23.347Z,8.10
2023-05-05T04:03:49.754Z,7.70
2023-05-05T04:06:16.616Z,7.38
2023-05-05T04:08:42.971Z,6.80
2023-05-05T04:11:09.372Z,7.70
2023-05-05T04:13:35.670Z,7.28
2023-05-05T04:16:02.235Z,7.53
2023-05-05T04:18:28.607Z,6.93
2023-05-05T04:20:55.234Z,7.85
2023-05-05T04:23:21.585Z,8.32
2023-05-05T04:25:48.030Z,7.72
2023-05-05T04:28:14.575Z,8.25
2023-05-05T04:30:41.028Z,8.13
2023-05-05T04:33:07.344Z,8.02
2023-05-05T04:35:33.665Z,7.35
2023-05-05T04:38:00.005Z,7.88
2023-05-05T04:40:26.689Z,8.25
2023-05-05T04:42:53.042Z,7.13
2023-05-05T04:45:19.482Z,7.30
2023-05-05T04:47:46.341Z,8.65
2023-05-05T04:50:13.688Z,7.93
2023-05-05T04:52:40.181Z,8.18
2023-05-05T04:55:08.390Z,7.47
2023-05-05T04:57:34.754Z,8.10
2023-05-05T05:00:01.636Z,8.52
2023-05-05T05:02:28.132Z,8.07
2023-05-05T05:04:54.594Z,9.05
2023-05-05T05:07:21.216Z,9.35
2023-05-05T05:09:47.525Z,8.23
2023-05-05T05:12:13.930Z,8.88
2023-05-05T05:14:40.316Z,9.02
2023-05-05T05:17:06.907Z,9.40
2023-05-05T05:19:33.258Z,9.18
2023-05-05T05:21:59.668Z,9.25
2023-05-05T05:24:26.165Z,9.27
2023-05-05T05:26:52.575Z,10.15
2023-05-05T05:29:20.266Z,9.75
2023-05-05T05:31:46.644Z,9.15
2023-05-05T05:34:13.225Z,8.73
2023-05-05T05:36:39.696Z,8.50
2023-05-05T05:39:06.324Z,9.23
2023-05-05T05:41:32.659Z,9.20
2023-05-05T05:43:59.069Z,9.30
2023-05-05T05:46:25.444Z,9.93
2023-05-05T05:48:51.825Z,9.77
2023-05-05T05:51:18.204Z,9.50
2023-05-05T05:53:44.472Z,8.80
2023-05-05T05:56:10.854Z,8.80
2023-05-05T05:58:37.280Z,8.85
2023-05-05T06:01:04.837Z,7.85
2023-05-05T06:03:31.294Z,8.55
2023-05-05T06:05:58.915Z,9.80
2023-05-05T06:08:26.435Z,9.20
2023-05-05T06:10:52.897Z,7.95
2023-05-05T06:13:19.427Z,7.70
2023-05-05T06:15:46.049Z,9.20
2023-05-05T06:18:12.438Z,8.93
2023-05-05T06:20:38.899Z,8.07
2023-05-05T06:23:05.496Z,9.40
2023-05-05T06:25:31.873Z,7.85
2023-05-05T06:27:58.265Z,8.65
2023-05-05T06:30:25.981Z,9.02
2023-05-05T06:32:54.167Z,8.20
2023-05-05T06:35:22.136Z,7.70
2023-05-05T06:37:48.488Z,8.15
2023-05-05T06:40:15.049Z,8.00
2023-05-05T06:42:41.798Z,7.97
2023-05-05T06:45:08.569Z,7.43
2023-05-05T06:47:35.871Z,8.02
2023-05-05T06:50:02.251Z,7.75
2023-05-05T06:52:28.630Z,7.53
2023-05-05T06:54:55.026Z,7.10
2023-05-05T06:57:21.382Z,6.93
2023-05-05T06:59:47.730Z,6.90
2023-05-05T07:02:14.132Z,7.07
2023-05-05T07:04:41.366Z,7.70
2023-05-05T07:07:08.032Z,6.93
2023-05-05T07:09:34.382Z,7.25
2023-05-05T07:12:00.727Z,7.15
2023-05-05T07:14:27.148Z,7.32
2023-05-05T07:16:53.593Z,6.88
2023-05-05T07:19:20.030Z,6.72
2023-05-05T07:21:47.319Z,7.45
2023-05-05T07:24:13.622Z,7.65
2023-05-05T07:26:40.209Z,7.60
2023-05-05T07:29:07.047Z,7.03
2023-05-05T07:31:33.372Z,7.50
2023-05-05T07:34:00.108Z,6.60
2023-05-05T07:36:27.766Z,5.40
2023-05-05T07:38:54.699Z,5.47
2023-05-05T07:41:21.227Z,6.20
2023-05-05T07:43:47.593Z,6.20
2023-05-05T07:46:14.028Z,6.07
2023-05-05T07:48:41.506Z,5.85
2023-05-05T07:51:08.540Z,5.50
2023-05-05T07:53:34.872Z,4.82
2023-05-05T07:56:01.181Z,5.28
2023-05-05T07:58:27.498Z,5.00
2023-05-05T08:00:53.821Z,4.50
2023-05-05T08:03:24.139Z,4.88
2023-05-05T08:05:53.822Z,4.15
2023-05-05T08:08:24.216Z,4.68
2023-05-05T08:10:51.634Z,4.60
2023-05-05T08:13:18.135Z,4.88
2023-05-05T08:15:45.321Z,5.20
2023-05-05T08:18:11.822Z,4.22
2023-05-05T08:20:38.213Z,4.55
2023-05-05T08:23:05.148Z,4.70
2023-05-05T08:25:31.587Z,4.40
2023-05-05T08:27:57.998Z,4.72
2023-05-05T08:30:24.329Z,4.45
2023-05-05T08:32:50.987Z,4.40
2023-05-05T08:35:18.206Z,4.10
2023-05-05T08:37:44.806Z,3.95
2023-05-05T08:40:13.906Z,4.03
2023-05-05T08:42:41.677Z,4.45
2023-05-05T08:45:09.773Z,4.22
2023-05-05T08:47:37.819Z,4.03
2023-05-05T08:50:05.860Z,4.00
2023-05-05T08:52:40.185Z,4.13
2023-05-05T08:55:29.666Z,4.13
2023-05-05T08:57:57.820Z,3.20
2023-05-05T09:00:26.875Z,3.72
2023-05-05T09:02:55.880Z,2.60
2023-05-05T09:05:22.625Z,3.05
2023-05-05T09:07:50.562Z,3.30
2023-05-05T09:10:17.812Z,2.97
2023-05-05T09:12:44.438Z,3.17
2023-05-05T09:15:14.213Z,2.63
2023-05-05T09:17:41.523Z,2.85
2023-05-05T09:20:13.176Z,2.88
2023-05-05T09:22:44.061Z,2.40
2023-05-05T09:25:12.565Z,2.78
2023-05-05T09:27:42.712Z,2.50
2023-05-05T09:30:10.964Z,2.33
2023-05-05T09:32:49.090Z,2.15
2023-05-05T09:35:16.288Z,2.33
2023-05-05T09:37:43.175Z,2.13
2023-05-05T09:40:10.473Z,2.25
2023-05-05T09:42:37.891Z,1.52
2023-05-05T09:45:19.267Z,1.55
2023-05-05T09:47:49.235Z,1.65
2023-05-05T09:50:18.695Z,1.67
2023-05-05T09:53:14.759Z,1.92
2023-05-05T09:55:41.761Z,2.08
2023-05-05T09:58:21.570Z,2.10
2023-05-05T10:00:48.016Z,1.60
2023-05-05T10:03:14.375Z,1.98
2023-05-05T10:05:58.901Z,1.95
2023-05-05T10:08:27.275Z,2.15
2023-05-05T10:11:02.780Z,2.35
2023-05-05T10:13:29.912Z,1.92
2023-05-05T10:15:57.685Z,2.08
2023-05-05T10:18:25.834Z,2.00
2023-05-05T10:20:57.228Z,1.40
2023-05-05T10:23:26.423Z,2.20
2023-05-05T10:26:05.507Z,1.38
2023-05-05T10:28:34.461Z,1.35
2023-05-05T10:31:04.254Z,1.10
2023-05-05T10:33:47.599Z,1.60
2023-05-05T10:36:15.068Z,1.30
2023-05-05T10:38:42.915Z,1.35
2023-05-05T10:41:10.066Z,1.45
2023-05-05T10:43:37.319Z,1.67
2023-05-05T10:46:04.250Z,1.65
2023-05-05T10:48:36.275Z,2.00
2023-05-05T10:51:38.633Z,1.75
2023-05-05T10:54:13.662Z,1.90
2023-05-05T10:56:41.122Z,1.60
2023-05-05T10:59:38.839Z,1.50
2023-05-05T11:02:29.607Z,1.60
2023-05-05T11:05:07.050Z,1.85
2023-05-05T11:07:34.435Z,1.58
2023-05-05T11:10:06.045Z,1.73
2023-05-05T11:12:53.292Z,1.75
2023-05-05T11:15:33.340Z,1.67
2023-05-05T11:18:03.146Z,1.50
2023-05-05T11:20:39.286Z,1.80
2023-05-05T11:23:05.632Z,1.83
2023-05-05T11:25:35.214Z,1.65
2023-05-05T11:28:06.682Z,1.48
2023-05-05T11:30:33.140Z,1.67
2023-05-05T11:33:31.802Z,1.80
2023-05-05T11:36:06.838Z,1.70
2023-05-05T11:39:08.914Z,1.90
2023-05-05T11:41:44.054Z,2.38
2023-05-05T11:44:12.976Z,1.75
2023-05-05T11:46:51.626Z,1.95
2023-05-05T11:49:27.796Z,1.90
2023-05-05T11:51:57.700Z,5.85
2023-05-05T11:54:24.906Z,1.85
2023-05-05T11:56:53.362Z,1.70
2023-05-05T11:59:19.774Z,2.80
2023-05-05T12:01:46.315Z,2.30
2023-05-05T12:04:14.437Z,2.38
2023-05-05T12:06:43.960Z,1.65
2023-05-05T12:09:21.159Z,12.30
2023-05-05T12:11:52.212Z,2.22
2023-05-05T12:14:19.013Z,2.47
2023-05-05T12:16:55.848Z,2.42
2023-05-05T12:19:22.475Z,2.30
2023-05-05T12:21:49.247Z,2.63
2023-05-05T12:24:15.805Z,2.20
2023-05-05T12:26:42.298Z,1.60
2023-05-05T12:29:08.660Z,2.20
2023-05-05T12:31:40.327Z,2.58
2023-05-05T12:34:09.119Z,2.40
2023-05-05T12:36:36.872Z,1.95
2023-05-05T12:39:08.161Z,2.00
2023-05-05T12:41:34.764Z,3.13
2023-05-05T12:44:03.368Z,2.75
2023-05-05T12:46:30.929Z,2.25
2023-05-05T12:49:05.843Z,2.03
2023-05-05T12:51:35.917Z,1.85
2023-05-05T12:54:08.034Z,1.83
2023-05-05T12:56:43.915Z,2.00
2023-05-05T12:59:29.589Z,1.92
2023-05-05T13:01:58.255Z,1.88
2023-05-05T13:04:27.859Z,1.80
2023-05-05T13:07:11.614Z,1.90
2023-05-05T13:09:38.385Z,1.60
2023-05-05T13:12:05.091Z,1.95
2023-05-05T13:14:32.362Z,1.80
2023-05-05T13:16:58.800Z,1.60
2023-05-05T13:19:25.412Z,1.60
2023-05-05T13:21:52.492Z,1.83
2023-05-05T13:24:28.600Z,1.95
2023-05-05T13:27:02.965Z,2.10
2023-05-05T13:29:31.261Z,1.55
2023-05-05T13:31:58.203Z,1.70
2023-05-05T13:34:24.860Z,1.83
2023-05-05T13:36:51.842Z,1.48
2023-05-05T13:39:18.958Z,3.03
2023-05-05T13:41:45.367Z,2.10
2023-05-05T13:44:12.262Z,1.75
2023-05-05T13:46:38.658Z,1.70
2023-05-05T13:49:05.104Z,1.30
2023-05-05T13:51:31.422Z,1.95
2023-05-05T13:53:57.772Z,1.30
2023-05-05T13:56:26.146Z,1.80
2023-05-05T13:58:52.584Z,1.90
2023-05-05T14:01:19.212Z,1.60
2023-05-05T14:03:45.660Z,2.40
2023-05-05T14:06:12.045Z,2.50
2023-05-05T14:08:38.414Z,1.55
2023-05-05T14:11:04.903Z,2.05
2023-05-05T14:13:31.288Z,1.83
2023-05-05T14:15:58.245Z,1.67
2023-05-05T14:18:25.344Z,2.00
2023-05-05T14:20:51.704Z,1.60
2023-05-05T14:23:18.084Z,1.80
2023-05-05T14:25:44.442Z,1.85
2023-05-05T14:28:10.963Z,1.95
2023-05-05T14:30:37.277Z,1.92
2023-05-05T14:33:03.773Z,1.80
2023-05-05T14:35:31.127Z,2.05
2023-05-05T14:37:57.483Z,1.58
2023-05-05T14:40:23.832Z,1.88
2023-05-05T14:42:50.809Z,1.70
2023-05-05T14:45:18.270Z,1.77
2023-05-05T14:47:44.779Z,1.92
2023-05-05T14:50:11.214Z,1.85
2023-05-05T14:52:40.023Z,1.92
2023-05-05T14:55:07.551Z,2.00
2023-05-05T14:57:34.455Z,1.70
2023-05-05T15:00:01.817Z,1.98
2023-05-05T15:02:28.265Z,1.70
2023-05-05T15:04:54.637Z,1.70
2023-05-05T15:07:22.470Z,1.70
2023-05-05T15:09:48.834Z,1.50
2023-05-05T15:12:15.200Z,1.80
2023-05-05T15:14:42.196Z,1.75
2023-05-05T15:17:08.829Z,2.03
2023-05-05T15:19:35.238Z,1.98
2023-05-05T15:22:01.569Z,4.03
2023-05-05T15:24:27.946Z,4.55
2023-05-05T15:26:54.291Z,3.28
2023-05-05T15:29:21.132Z,4.18
2023-05-05T15:31:47.508Z,4.65
2023-05-05T15:34:13.898Z,4.53
2023-05-05T15:36:40.229Z,5.80
2023-05-05T15:39:07.004Z,6.28
2023-05-05T15:41:34.223Z,5.95
2023-05-05T15:44:02.005Z,6.43
2023-05-05T15:46:31.419Z,6.10
2023-05-05T15:48:57.783Z,5.38
2023-05-05T15:51:24.128Z,5.40
2023-05-05T15:53:52.171Z,5.82
2023-05-05T15:56:18.899Z,4.97
2023-05-05T15:58:45.242Z,5.13
2023-05-05T16:01:11.647Z,4.55
2023-05-05T16:03:38.024Z,4.18
2023-05-05T16:06:04.478Z,3.50
2023-05-05T16:08:31.946Z,4.78
2023-05-05T16:10:58.248Z,4.90
2023-05-05T16:13:24.722Z,5.15
2023-05-05T16:15:51.385Z,5.07
2023-05-05T16:18:17.711Z,3.42
2023-05-05T16:20:44.447Z,3.38
2023-05-05T16:23:11.183Z,3.25
2023-05-05T16:25:37.605Z,3.42
2023-05-05T16:28:04.464Z,3.90
2023-05-05T16:30:30.794Z,4.47
2023-05-05T16:32:57.236Z,4.45
2023-05-05T16:35:23.586Z,4.35
2023-05-05T16:37:49.893Z,4.45
2023-05-05T16:40:16.485Z,4.40
2023-05-05T16:42:44.513Z,4.82
2023-05-05T16:45:11.838Z,4.97
2023-05-05T16:47:38.532Z,5.07
2023-05-05T16:50:05.764Z,5.50
2023-05-05T16:52:32.160Z,6.10
2023-05-05T16:54:58.521Z,6.10
2023-05-05T16:57:25.194Z,6.10
2023-05-05T16:59:55.157Z,5.53
2023-05-05T17:02:21.530Z,6.00
2023-05-05T17:04:47.921Z,5.95
2023-05-05T17:07:14.286Z,5.25
2023-05-05T17:09:40.880Z,5.63
2023-05-05T17:12:07.349Z,6.10
2023-05-05T17:14:33.771Z,5.45
2023-05-05T17:17:00.256Z,6.63
2023-05-05T17:19:26.778Z,6.75
2023-05-05T17:21:54.292Z,6.22
2023-05-05T17:24:20.804Z,5.90
2023-05-05T17:26:47.122Z,4.00
2023-05-05T17:29:14.162Z,4.18
2023-05-05T17:31:41.745Z,3.83
2023-05-05T17:34:08.065Z,4.38
2023-05-05T17:36:35.320Z,3.80
2023-05-05T17:39:01.866Z,3.75
2023-05-05T17:41:28.305Z,3.53
2023-05-05T17:43:54.749Z,3.53
2023-05-05T17:46:21.232Z,2.85
2023-05-05T17:48:47.933Z,2.63
2023-05-05T17:51:14.588Z,2.97
2023-05-05T17:53:41.113Z,2.97
2023-05-05T17:56:08.953Z,2.78
2023-05-05T17:58:35.778Z,2.45
2023-05-05T18:01:02.304Z,2.55
2023-05-05T18:03:28.841Z,3.03
2023-05-05T18:05:55.402Z,2.60
2023-05-05T18:08:22.249Z,2.90
2023-05-05T18:10:48.694Z,2.80
2023-05-05T18:13:15.177Z,2.70
2023-05-05T18:15:41.708Z,3.15
2023-05-05T18:18:08.109Z,3.20
2023-05-05T18:20:34.458Z,2.55
2023-05-05T18:23:01.031Z,3.08
2023-05-05T18:25:27.425Z,3.08
2023-05-05T18:27:53.734Z,3.30
2023-05-05T18:30:20.046Z,3.03
2023-05-05T18:32:46.526Z,2.88
2023-05-05T18:35:13.011Z,3.03
2023-05-05T18:37:39.466Z,2.80
2023-05-05T18:40:06.947Z,2.50
2023-05-05T18:42:33.370Z,2.63
2023-05-05T18:44:59.717Z,3.47
2023-05-05T18:47:26.310Z,2.88
2023-05-05T18:49:52.640Z,2.85
2023-05-05T18:52:19.027Z,2.83
2023-05-05T18:54:45.558Z,2.80
2023-05-05T18:57:12.096Z,2.88
2023-05-05T18:59:38.504Z,3.20
2023-05-05T19:02:05.002Z,3.65
2023-05-05T19:04:32.609Z,3.58
2023-05-05T19:06:59.537Z,3.20
2023-05-05T19:09:26.079Z,2.92
2023-05-05T19:11:52.375Z,2.90
2023-05-05T19:14:18.787Z,3.28
2023-05-05T19:16:45.296Z,3.38
2023-05-05T19:19:11.637Z,3.30
2023-05-05T19:21:38.344Z,3.45
2023-05-05T19:24:06.579Z,2.92
2023-05-05T19:26:32.947Z,2.92
2023-05-05T19:28:59.700Z,3.15
2023-05-05T19:31:30.864Z,3.17
2023-05-05T19:34:02.120Z,3.28
2023-05-05T19:36:29.903Z,3.15
2023-05-05T19:38:56.225Z,3.28
2023-05-05T19:41:22.670Z,2.95
2023-05-05T19:43:49.921Z,3.40
2023-05-05T19:46:17.044Z,3.25
2023-05-05T19:48:43.938Z,3.45
2023-05-05T19:51:10.268Z,3.53
2023-05-05T19:53:36.612Z,3.97
2023-05-05T19:56:04.649Z,3.92
2023-05-05T19:58:31.307Z,4.22
2023-05-05T20:00:57.688Z,3.85
2023-05-05T20:03:24.324Z,4.25
2023-05-05T20:05:50.853Z,4.10
2023-05-05T20:08:17.157Z,4.57
2023-05-05T20:10:43.459Z,3.72
2023-05-05T20:13:09.925Z,4.25
2023-05-05T20:15:36.306Z,4.20
2023-05-05T20:18:02.792Z,4.13
2023-05-05T20:20:29.230Z,4.13
2023-05-05T20:22:55.773Z,4.07
2023-05-05T20:25:22.111Z,3.95
2023-05-05T20:27:48.482Z,3.70
2023-05-05T20:30:15.006Z,3.88
2023-05-05T20:32:41.435Z,4.47
2023-05-05T20:35:08.705Z,4.07
2023-05-05T20:37:35.111Z,3.75
2023-05-05T20:40:01.526Z,4.10
2023-05-05T20:42:29.421Z,3.53
2023-05-05T20:44:55.918Z,3.45
2023-05-05T20:47:22.313Z,4.40
2023-05-05T20:49:48.727Z,3.90
2023-05-05T20:52:15.234Z,3.85
2023-05-05T20:54:41.642Z,3.88
2023-05-05T20:57:08.080Z,4.07
2023-05-05T20:59:34.448Z,4.28
2023-05-05T21:02:01.153Z,4.22
2023-05-05T21:04:27.861Z,4.35
2023-05-05T21:06:54.313Z,3.97
2023-05-05T21:09:21.437Z,4.68
2023-05-05T21:11:48.640Z,4.55
2023-05-05T21:14:15.088Z,5.68
2023-05-05T21:16:42.235Z,5.05
2023-05-05T21:19:08.611Z,4.10
2023-05-05T21:21:35.025Z,4.57
2023-05-05T21:24:01.645Z,4.55
2023-05-05T21:26:27.983Z,3.97
2023-05-05T21:28:54.384Z,4.40
2023-05-05T21:31:22.431Z,4.38
2023-05-05T21:33:49.294Z,4.22
2023-05-05T21:36:17.428Z,4.13
2023-05-05T21:38:43.800Z,4.45
2023-05-05T21:41:10.259Z,4.32
2023-05-05T21:43:36.690Z,4.50
2023-05-05T21:46:05.007Z,4.07
2023-05-05T21:48:31.715Z,4.55
2023-05-05T21:50:58.077Z,5.00
2023-05-05T21:53:24.569Z,4.18
2023-05-05T21:55:51.399Z,4.45
2023-05-05T21:58:17.761Z,4.35
2023-05-05T22:00:44.914Z,4.32
2023-05-05T22:03:11.513Z,4.20
2023-05-05T22:05:38.238Z,4.05
2023-05-05T22:08:04.629Z,4.25
2023-05-05T22:10:30.948Z,4.50
2023-05-05T22:12:58.009Z,4.10
2023-05-05T22:15:27.712Z,4.10
2023-05-05T22:17:56.533Z,4.28
2023-05-05T22:20:23.065Z,3.88
2023-05-05T22:22:49.396Z,5.45
2023-05-05T22:25:15.734Z,4.55
2023-05-05T22:27:42.162Z,4.63
2023-05-05T22:30:09.034Z,4.68
2023-05-05T22:32:35.629Z,4.57
2023-05-05T22:35:01.965Z,4.50
2023-05-05T22:37:28.395Z,4.85
2023-05-05T22:39:54.817Z,5.13
2023-05-05T22:42:21.265Z,4.97
2023-05-05T22:44:47.651Z,4.88
2023-05-05T22:47:14.087Z,4.38
2023-05-05T22:49:40.499Z,3.80
2023-05-05T22:52:07.408Z,3.80
2023-05-05T22:54:33.846Z,4.80
2023-05-05T22:57:00.440Z,4.50
2023-05-05T22:59:26.740Z,4.60
2023-05-05T23:01:53.015Z,3.92
2023-05-05T23:04:19.532Z,3.72
2023-05-05T23:06:46.200Z,3.95
2023-05-05T23:09:12.645Z,4.53
2023-05-05T23:11:39.102Z,4.68
2023-05-05T23:14:05.722Z,4.40
2023-05-05T23:16:32.405Z,4.55
2023-05-05T23:18:59.062Z,4.45
2023-05-05T23:21:25.647Z,4.07
2023-05-05T23:23:52.087Z,4.32
2023-05-05T23:26:18.420Z,4.55
2023-05-05T23:28:44.753Z,3.92
2023-05-05T23:31:11.103Z,4.28
2023-05-05T23:33:37.563Z,4.15
2023-05-05T23:36:04.345Z,4.05
2023-05-05T23:38:30.723Z,4.35
2023-05-05T23:40:57.071Z,4.22
2023-05-05T23:43:23.475Z,4.68
2023-05-05T23:45:49.904Z,4.40
2023-05-05T23:48:16.280Z,4.47
2023-05-05T23:50:42.724Z,4.47
2023-05-05T23:53:09.500Z,4.75
2023-05-05T23:55:35.808Z,4.75
2023-05-05T23:58:02.208Z,5.38
